Time;durP1;ratioP1;P1;durP2;ratioP2;P2;SDS_P1;SDS_P2;PMS_P1;PMS_P2;Temp;Humidity;BMP_temperature;BMP_pressure;BME280_temperature;BME280_humidity;BME280_pressure;Samples;Min_cycle;Max_cycle;Signal;HPM_P1;HPM_P2
2023/06/27 03:59:00;;;;;;;1.92;1.25;;;13.00;99.90;;;;;;5904042;23;20238;-68
2023/06/27 04:01:28;;;;;;;1.05;1.05;;;13.00;99.90;;;;;;4977063;28;20270;-67
2023/06/27 04:03:55;;;;;;;1.08;1.08;;;13.10;99.90;;;;;;4977190;28;20199;-67
2023/06/27 04:06:21;;;;;;;1.30;1.20;;;13.20;99.90;;;;;;4977192;28;20227;-67
2023/06/27 04:08:48;;;;;;;1.30;1.30;;;13.20;99.90;;;;;;4977056;28;20262;-68
2023/06/27 04:11:15;;;;;;;1.38;1.35;;;13.40;99.90;;;;;;4977402;28;20551;-67
2023/06/27 04:13:41;;;;;;;1.20;1.13;;;13.40;99.90;;;;;;4977065;28;20287;-67
2023/06/27 04:16:08;;;;;;;1.20;1.20;;;13.50;99.90;;;;;;4977005;28;20208;-67
2023/06/27 04:18:36;;;;;;;1.25;1.10;;;13.60;99.90;;;;;;4976810;28;20691;-67
2023/06/27 04:21:03;;;;;;;1.20;1.20;;;13.70;99.90;;;;;;4976912;28;20227;-66
2023/06/27 04:23:29;;;;;;;1.13;1.13;;;13.80;99.90;;;;;;4976828;28;20236;-66
2023/06/27 04:26:04;;;;;;;1.05;1.05;;;14.00;99.90;;;;;;4976590;28;20694;-66
2023/06/27 04:28:31;;;;;;;1.67;1.50;;;14.10;99.90;;;;;;4976994;28;20233;-66
2023/06/27 04:30:59;;;;;;;1.60;1.60;;;14.10;99.90;;;;;;4976917;28;20231;-66
2023/06/27 04:33:27;;;;;;;1.25;1.20;;;14.20;99.90;;;;;;4977419;28;20207;-67
2023/06/27 04:36:00;;;;;;;4.70;1.58;;;14.20;99.90;;;;;;4977351;28;20194;-67
2023/06/27 04:38:27;;;;;;;1.05;1.05;;;14.40;99.90;;;;;;4976610;28;20232;-67
2023/06/27 04:40:54;;;;;;;1.73;1.30;;;14.40;99.90;;;;;;4976561;28;20219;-67
2023/06/27 04:43:21;;;;;;;1.38;1.30;;;14.50;99.90;;;;;;4976615;28;20204;-67
2023/06/27 04:45:47;;;;;;;1.15;1.15;;;14.60;99.90;;;;;;4976512;28;20214;-67
2023/06/27 04:48:14;;;;;;;1.10;1.10;;;14.70;99.90;;;;;;4976475;28;20223;-67
2023/06/27 04:50:41;;;;;;;1.40;1.30;;;14.80;99.90;;;;;;4976467;28;20206;-69
2023/06/27 04:53:09;;;;;;;1.80;1.70;;;14.90;99.90;;;;;;4976635;28;20207;-67
2023/06/27 04:55:35;;;;;;;1.60;1.50;;;14.80;99.90;;;;;;4976367;28;20203;-67
2023/06/27 04:58:02;;;;;;;1.52;1.52;;;14.90;99.90;;;;;;4976301;28;20211;-66
2023/06/27 05:00:29;;;;;;;1.58;1.58;;;15.10;99.90;;;;;;4976202;28;20211;-67
2023/06/27 05:02:56;;;;;;;1.90;1.80;;;15.20;99.90;;;;;;4976644;28;20191;-67
2023/06/27 05:05:24;;;;;;;1.50;1.40;;;15.30;99.90;;;;;;4976380;28;20258;-67
2023/06/27 05:07:51;;;;;;;1.85;1.77;;;15.40;99.90;;;;;;4978470;28;20203;-67
2023/06/27 05:10:19;;;;;;;1.40;1.40;;;15.50;99.90;;;;;;4983121;28;20678;-67
2023/06/27 05:12:46;;;;;;;1.85;1.73;;;15.60;99.90;;;;;;4985382;28;20199;-69
2023/06/27 10:53:04;;;;;;;1.73;1.02;;;23.60;84.70;;;;;;5853471;23;21300;-70
2023/06/27 10:55:33;;;;;;;1.40;1.40;;;23.30;94.90;;;;;;4974368;28;20209;-69
2023/06/27 10:58:06;;;;;;;2.53;1.45;;;23.20;93.30;;;;;;4974579;28;20297;-69
2023/06/27 11:00:34;;;;;;;2.58;1.20;;;23.30;85.70;;;;;;4974312;28;20651;-69
2023/06/27 11:03:04;;;;;;;4.15;1.58;;;23.20;88.20;;;;;;4974719;28;20234;-69
2023/06/27 11:05:49;;;;;;;1.48;1.38;;;23.20;94.20;;;;;;4997499;23;20233;-69
2023/06/27 11:08:18;;;;;;;1.40;1.30;;;23.50;96.50;;;;;;4974505;28;20198;-69
2023/06/27 11:11:02;;;;;;;1.20;1.20;;;23.90;89.30;;;;;;4974414;28;20253;-69
2023/06/27 11:13:30;;;;;;;1.35;1.27;;;24.10;90.70;;;;;;4974499;28;20187;-67
2023/06/27 11:15:57;;;;;;;1.65;1.13;;;24.40;85.30;;;;;;4974328;28;20227;-67
2023/06/27 11:18:26;;;;;;;1.27;1.08;;;24.70;88.00;;;;;;4974376;28;20261;-72
2023/06/27 11:20:53;;;;;;;1.05;1.02;;;24.90;69.70;;;;;;4974132;28;20729;-71
2023/06/27 11:23:21;;;;;;;1.45;1.25;;;24.90;71.10;;;;;;4974422;28;20226;-70
2023/06/27 11:25:49;;;;;;;1.20;1.20;;;24.60;70.20;;;;;;4974460;28;20226;-68
2023/06/27 11:28:21;;;;;;;2.00;1.45;;;24.30;73.60;;;;;;4974138;28;20638;-69
2023/06/27 11:30:48;;;;;;;3.58;1.50;;;24.10;74.00;;;;;;4974463;28;20237;-70
2023/06/27 11:33:17;;;;;;;1.77;1.25;;;23.80;73.50;;;;;;4974870;28;20202;-70
2023/06/27 11:35:44;;;;;;;2.45;1.42;;;23.70;71.30;;;;;;4977862;28;20231;-69
2023/06/27 11:38:11;;;;;;;2.90;1.33;;;23.80;82.80;;;;;;4977840;28;20203;-69
2023/06/27 11:40:38;;;;;;;3.20;1.42;;;23.60;83.40;;;;;;4977978;28;20228;-68
2023/06/27 11:43:07;;;;;;;1.48;1.35;;;23.60;83.40;;;;;;4977667;28;20235;-68
2023/06/27 11:45:36;;;;;;;3.50;1.65;;;23.70;85.10;;;;;;4977644;28;20227;-68
2023/06/27 11:48:03;;;;;;;2.38;1.33;;;23.80;79.70;;;;;;4977324;28;20297;-68
2023/06/27 11:50:30;;;;;;;1.25;1.10;;;23.90;92.20;;;;;;4977553;28;20207;-68
2023/06/27 11:52:58;;;;;;;1.00;1.00;;;24.30;87.10;;;;;;4977231;28;20662;-69
2023/06/27 11:55:26;;;;;;;1.05;1.02;;;24.70;71.40;;;;;;4977118;28;20223;-68
2023/06/27 11:57:54;;;;;;;1.17;1.10;;;24.90;71.80;;;;;;4977647;28;20569;-69
2023/06/27 12:00:23;;;;;;;1.00;1.00;;;25.20;69.80;;;;;;4977637;28;20303;-69
2023/06/27 12:02:53;;;;;;;0.93;0.93;;;25.30;68.20;;;;;;4977519;28;20227;-69
2023/06/27 12:05:21;;;;;;;1.20;1.20;;;25.60;68.60;;;;;;4977524;28;20261;-68
2023/06/27 12:08:04;;;;;;;1.50;1.05;;;25.50;63.60;;;;;;4977525;28;20198;-68
2023/06/27 12:10:32;;;;;;;1.02;1.00;;;25.40;66.30;;;;;;4977473;28;20194;-68
2023/06/27 12:13:02;;;;;;;1.70;1.45;;;25.60;66.80;;;;;;4977409;28;20225;-68
2023/06/27 12:15:29;;;;;;;3.20;1.42;;;25.40;64.80;;;;;;4977313;28;20241;-68
2023/06/27 12:18:01;;;;;;;1.45;1.45;;;25.20;65.60;;;;;;4977173;28;20206;-68
2023/06/27 12:20:41;;;;;;;3.15;1.25;;;24.90;64.70;;;;;;4977076;28;20203;-68
2023/06/27 12:23:08;;;;;;;1.80;1.48;;;24.40;65.50;;;;;;4977005;28;20302;-68
2023/06/27 12:25:35;;;;;;;1.70;1.60;;;24.10;65.40;;;;;;4976916;28;20223;-68
2023/06/27 12:28:02;;;;;;;3.15;1.38;;;23.90;67.30;;;;;;4976968;28;20214;-68
2023/06/27 12:30:29;;;;;;;3.10;1.40;;;23.80;68.40;;;;;;4977050;28;20191;-68
2023/06/27 12:32:56;;;;;;;1.73;1.60;;;23.60;64.20;;;;;;4976883;28;20249;-69
2023/06/27 12:35:25;;;;;;;1.63;1.30;;;23.50;65.00;;;;;;4976587;28;20223;-69
2023/06/27 12:37:52;;;;;;;1.52;1.42;;;23.40;69.60;;;;;;4976837;28;20325;-69
2023/06/27 12:40:22;;;;;;;1.05;1.05;;;23.20;70.70;;;;;;4976886;28;20202;-68
2023/06/27 12:42:50;;;;;;;3.03;1.48;;;23.00;71.90;;;;;;4976722;28;20302;-69
2023/06/27 12:45:17;;;;;;;1.90;1.70;;;22.90;80.60;;;;;;4975410;28;20230;-69
2023/06/27 12:47:44;;;;;;;4.10;1.73;;;22.90;86.70;;;;;;4976429;28;20670;-68
2023/06/27 12:50:11;;;;;;;2.20;2.00;;;22.70;76.70;;;;;;4976814;28;20211;-69
2023/06/27 12:52:39;;;;;;;2.28;1.40;;;22.50;70.50;;;;;;4977129;28;20198;-69
2023/06/27 12:55:07;;;;;;;1.27;1.17;;;22.60;75.20;;;;;;4982427;28;20222;-69
2023/06/27 12:57:34;;;;;;;1.42;1.30;;;22.60;77.00;;;;;;4992843;28;20211;-68
2023/06/27 13:00:02;;;;;;;3.28;1.60;;;22.80;78.60;;;;;;4984429;28;20290;-68
2023/06/27 13:02:29;;;;;;;1.20;1.10;;;22.90;70.90;;;;;;4981482;28;20250;-68
2023/06/27 13:04:56;;;;;;;3.45;1.45;;;22.90;69.10;;;;;;4977652;28;20207;-69
2023/06/27 13:07:22;;;;;;;1.55;1.40;;;22.80;71.90;;;;;;4977105;28;20187;-68
2023/06/27 13:09:51;;;;;;;1.35;1.25;;;22.90;78.60;;;;;;4976242;28;20237;-68
2023/06/27 13:12:18;;;;;;;3.03;1.70;;;22.80;78.30;;;;;;4976065;28;20660;-68
2023/06/27 13:14:44;;;;;;;1.10;1.10;;;22.80;70.80;;;;;;4976332;28;20214;-68
2023/06/27 13:17:11;;;;;;;1.52;1.42;;;22.70;72.20;;;;;;4976266;28;20207;-69
2023/06/27 13:19:37;;;;;;;1.40;1.30;;;22.80;71.70;;;;;;4976304;28;20206;-69
2023/06/27 13:22:05;;;;;;;1.75;1.10;;;22.90;71.10;;;;;;4976175;28;20218;-68
2023/06/27 13:24:31;;;;;;;1.35;1.25;;;22.90;70.80;;;;;;4976130;28;20210;-68
2023/06/27 13:26:59;;;;;;;1.30;1.20;;;23.00;69.20;;;;;;4975944;28;20227;-68
2023/06/27 13:29:26;;;;;;;2.25;1.40;;;23.10;72.40;;;;;;4976408;28;20323;-68
2023/06/27 13:31:54;;;;;;;4.53;1.60;;;23.30;71.30;;;;;;4976696;28;20241;-69
2023/06/27 13:34:21;;;;;;;2.60;1.58;;;23.40;70.70;;;;;;4975369;28;20609;-69
2023/06/27 13:36:47;;;;;;;1.65;1.20;;;23.30;66.30;;;;;;4975727;28;20227;-69
2023/06/27 13:39:15;;;;;;;2.53;1.63;;;23.20;69.40;;;;;;4975620;28;20210;-69
2023/06/27 13:41:41;;;;;;;2.60;1.40;;;23.30;72.40;;;;;;4975740;28;20206;-69
2023/06/27 13:44:11;;;;;;;2.80;1.83;;;23.10;69.80;;;;;;4975677;28;20235;-68
2023/06/27 13:46:37;;;;;;;3.10;1.77;;;23.00;70.50;;;;;;4975427;28;20245;-69
2023/06/27 13:49:08;;;;;;;1.60;1.50;;;23.00;71.80;;;;;;4975336;28;20207;-69
2023/06/27 13:51:34;;;;;;;2.33;1.40;;;23.00;70.10;;;;;;4975967;28;20242;-69
2023/06/27 13:54:01;;;;;;;4.45;1.45;;;23.00;71.00;;;;;;4975205;28;20559;-71
2023/06/27 13:56:28;;;;;;;1.50;1.40;;;23.10;74.80;;;;;;4975161;28;20309;-70
2023/06/27 13:58:55;;;;;;;1.52;1.38;;;22.90;70.90;;;;;;4975347;28;20184;-70
2023/06/27 14:01:23;;;;;;;1.48;1.13;;;23.00;71.00;;;;;;4975809;28;20206;-69
2023/06/27 14:03:50;;;;;;;1.60;1.33;;;23.00;70.40;;;;;;4975257;28;20226;-70
2023/06/27 14:06:16;;;;;;;2.08;1.88;;;23.10;71.10;;;;;;4974761;28;20234;-70
2023/06/27 14:08:43;;;;;;;1.67;1.45;;;23.10;70.30;;;;;;4975187;28;20210;-69
2023/06/27 14:11:13;;;;;;;1.50;1.20;;;23.00;71.00;;;;;;4975678;28;20209;-69
2023/06/27 14:13:43;;;;;;;2.83;1.40;;;23.10;72.60;;;;;;4974861;28;20206;-69
2023/06/27 14:16:10;;;;;;;2.47;1.52;;;23.20;73.20;;;;;;4975135;28;20223;-70
2023/06/27 14:18:38;;;;;;;1.65;1.50;;;23.20;72.50;;;;;;4975417;28;20206;-70
2023/06/27 14:21:09;;;;;;;1.48;1.45;;;23.30;79.30;;;;;;4975346;28;20202;-70
2023/06/27 14:23:35;;;;;;;1.80;1.40;;;23.30;74.40;;;;;;4975146;28;20222;-69
2023/06/27 14:26:02;;;;;;;1.27;1.23;;;23.30;79.60;;;;;;4975025;28;20334;-69
2023/06/27 14:28:30;;;;;;;2.55;1.70;;;23.20;78.40;;;;;;4974718;28;20226;-69
2023/06/27 14:30:58;;;;;;;1.67;1.42;;;23.10;76.90;;;;;;4975027;28;20629;-70
2023/06/27 14:33:25;;;;;;;1.85;1.20;;;23.00;73.70;;;;;;4974547;28;20568;-69
2023/06/27 14:35:55;;;;;;;1.33;1.20;;;22.90;77.80;;;;;;4976786;28;20231;-69
2023/06/27 14:38:23;;;;;;;1.85;1.50;;;22.80;79.00;;;;;;4979952;28;20238;-69
2023/06/27 14:40:51;;;;;;;1.40;1.30;;;22.90;78.40;;;;;;4980685;28;20206;-69
2023/06/27 14:43:19;;;;;;;1.58;1.30;;;22.90;81.10;;;;;;4979420;28;20222;-70
2023/06/27 14:45:45;;;;;;;1.63;1.40;;;22.90;82.60;;;;;;4974667;28;20226;-70
2023/06/27 14:48:12;;;;;;;2.15;1.45;;;23.00;78.10;;;;;;4974394;28;20693;-70
2023/06/27 14:50:39;;;;;;;4.60;1.50;;;22.90;78.70;;;;;;4974426;28;20570;-70
2023/06/27 14:53:07;;;;;;;1.98;1.75;;;22.80;76.50;;;;;;4976176;28;20195;-69
2023/06/27 14:55:35;;;;;;;2.63;1.70;;;22.70;76.90;;;;;;4979077;28;20222;-69
2023/06/27 14:58:02;;;;;;;1.55;1.40;;;22.60;76.90;;;;;;4978081;28;20670;-70
2023/06/27 15:00:30;;;;;;;2.92;2.00;;;22.60;78.20;;;;;;4979406;28;20662;-69
2023/06/27 15:02:58;;;;;;;2.22;1.65;;;22.70;77.90;;;;;;4978078;28;20246;-69
2023/06/27 15:05:25;;;;;;;2.40;1.67;;;22.70;77.80;;;;;;4978444;28;20321;-68
2023/06/27 15:07:53;;;;;;;1.85;1.70;;;22.80;78.70;;;;;;4978345;28;20203;-68
2023/06/27 15:10:21;;;;;;;1.80;1.70;;;22.90;72.90;;;;;;4982103;28;20237;-69
2023/06/27 15:12:50;;;;;;;1.88;1.45;;;22.80;69.20;;;;;;4981988;28;20286;-69
2023/06/27 15:15:17;;;;;;;4.53;1.58;;;22.90;70.90;;;;;;4982570;28;20229;-69
2023/06/27 15:17:43;;;;;;;1.67;1.20;;;22.90;71.00;;;;;;4981132;28;20234;-69
2023/06/27 15:20:11;;;;;;;1.45;1.33;;;22.80;72.80;;;;;;4978381;28;20203;-69
2023/06/27 15:22:38;;;;;;;1.77;1.48;;;22.90;74.30;;;;;;4977632;28;20229;-69
2023/06/27 15:25:05;;;;;;;2.42;1.77;;;22.90;71.00;;;;;;4977966;28;20223;-69
2023/06/27 15:27:34;;;;;;;1.58;1.48;;;23.00;75.20;;;;;;4977960;28;20199;-69
2023/06/27 15:30:00;;;;;;;1.27;1.17;;;23.00;70.80;;;;;;4977892;28;20210;-68
2023/06/27 15:32:27;;;;;;;1.30;1.30;;;23.10;69.60;;;;;;4977871;28;20210;-69
2023/06/27 15:34:54;;;;;;;1.33;1.20;;;23.20;70.60;;;;;;4977540;28;20206;-68
2023/06/27 15:37:20;;;;;;;1.25;1.15;;;23.30;73.20;;;;;;4977834;28;20317;-68
2023/06/27 15:39:47;;;;;;;1.20;1.13;;;23.30;68.60;;;;;;4977615;28;20221;-68
2023/06/27 15:42:14;;;;;;;2.05;1.67;;;23.30;66.80;;;;;;4977617;28;20210;-68
2023/06/27 15:44:43;;;;;;;2.47;2.08;;;23.20;68.80;;;;;;4977242;28;20617;-69
2023/06/27 15:47:09;;;;;;;2.85;1.42;;;23.30;71.40;;;;;;4977572;28;20210;-69
2023/06/27 15:49:36;;;;;;;2.42;1.52;;;23.30;71.30;;;;;;4977689;28;20206;-69
2023/06/27 15:52:03;;;;;;;1.80;1.38;;;23.40;68.60;;;;;;4977604;28;20206;-69
2023/06/27 15:54:29;;;;;;;2.40;1.38;;;23.30;65.70;;;;;;4977505;28;20203;-68
2023/06/27 15:56:56;;;;;;;1.35;1.08;;;23.20;66.90;;;;;;4977461;28;20222;-68
2023/06/27 15:59:23;;;;;;;2.47;1.40;;;23.10;65.70;;;;;;4977441;28;20207;-69
2023/06/27 16:01:51;;;;;;;1.90;1.55;;;23.00;65.60;;;;;;4977252;28;20207;-69
2023/06/27 16:04:18;;;;;;;1.33;1.23;;;23.00;65.40;;;;;;4977258;28;20223;-69
2023/06/27 16:06:44;;;;;;;1.83;1.60;;;23.00;63.40;;;;;;4976741;28;20629;-68
2023/06/27 16:09:11;;;;;;;1.73;1.30;;;22.90;59.70;;;;;;4977246;28;20203;-69
2023/06/27 16:11:38;;;;;;;2.30;1.52;;;22.80;63.50;;;;;;4977528;28;20213;-69
2023/06/27 16:14:05;;;;;;;2.00;1.40;;;22.70;63.10;;;;;;4977991;28;20199;-69
2023/06/27 16:16:32;;;;;;;1.52;1.38;;;22.60;67.20;;;;;;4976997;28;20219;-69
2023/06/27 16:19:00;;;;;;;2.83;1.30;;;22.70;66.50;;;;;;4976746;28;20257;-69
2023/06/27 16:21:27;;;;;;;2.20;1.50;;;22.80;67.20;;;;;;4976973;28;20203;-69
2023/06/27 16:23:53;;;;;;;1.73;1.63;;;22.80;65.10;;;;;;4976930;28;20277;-70
2023/06/27 16:26:20;;;;;;;1.50;1.40;;;22.70;63.30;;;;;;4976860;28;20226;-70
2023/06/27 16:28:47;;;;;;;1.55;1.35;;;22.70;61.70;;;;;;4976852;28;20199;-69
2023/06/27 16:31:14;;;;;;;2.67;1.50;;;22.60;61.20;;;;;;4976885;28;20211;-69
2023/06/27 16:33:41;;;;;;;2.00;1.30;;;22.50;60.40;;;;;;4976767;28;20203;-69
2023/06/27 16:36:09;;;;;;;1.35;1.30;;;22.40;60.20;;;;;;4976574;28;20223;-69
2023/06/27 16:38:35;;;;;;;1.20;1.13;;;22.50;62.50;;;;;;4976674;28;20203;-70
2023/06/27 16:41:02;;;;;;;2.85;1.20;;;22.50;62.80;;;;;;4976438;28;20567;-70
2023/06/27 16:43:29;;;;;;;1.10;1.10;;;22.60;63.80;;;;;;4976563;28;20589;-70
2023/06/27 16:45:55;;;;;;;1.15;1.10;;;22.60;63.00;;;;;;4976560;28;20230;-69
2023/06/27 16:48:22;;;;;;;2.58;1.50;;;22.50;62.60;;;;;;4977290;28;20206;-69
2023/06/27 16:50:49;;;;;;;1.50;1.20;;;22.40;64.30;;;;;;4976594;28;20207;-70
2023/06/27 16:53:17;;;;;;;1.45;1.35;;;22.30;66.60;;;;;;4976486;28;20203;-69
2023/06/27 16:55:43;;;;;;;4.05;1.35;;;22.20;67.50;;;;;;4976305;28;20254;-70
2023/06/27 16:58:11;;;;;;;1.42;1.33;;;22.10;69.20;;;;;;4976390;28;20205;-69
2023/06/27 17:00:38;;;;;;;2.80;1.20;;;22.10;72.10;;;;;;4976327;28;20199;-68
2023/06/27 17:03:06;;;;;;;1.10;1.10;;;22.10;69.40;;;;;;4976142;28;20210;-69
2023/06/27 17:05:32;;;;;;;2.75;1.30;;;21.90;67.60;;;;;;4999333;23;20228;-67
2023/06/27 17:07:59;;;;;;;1.25;1.20;;;21.90;69.80;;;;;;4976362;28;20214;-67
2023/06/27 17:10:27;;;;;;;2.45;1.23;;;21.90;70.60;;;;;;4976386;28;20210;-67
2023/06/27 17:12:54;;;;;;;2.35;1.40;;;21.80;70.30;;;;;;4976394;28;20269;-67
2023/06/27 17:15:22;;;;;;;1.30;1.20;;;21.80;72.50;;;;;;4976460;28;20206;-67
2023/06/27 17:17:49;;;;;;;2.30;1.35;;;21.70;74.30;;;;;;4976576;28;20207;-67
2023/06/27 17:20:15;;;;;;;1.52;1.20;;;21.70;77.50;;;;;;4976443;28;20233;-67
2023/06/27 17:22:42;;;;;;;1.40;1.30;;;21.60;78.90;;;;;;4976692;28;20214;-68
2023/06/27 17:25:09;;;;;;;1.48;1.38;;;21.60;79.60;;;;;;4976385;28;20230;-67
2023/06/27 17:27:37;;;;;;;1.25;1.10;;;21.60;79.00;;;;;;4976722;28;20191;-67
2023/06/27 17:30:05;;;;;;;1.33;1.23;;;21.50;81.10;;;;;;4976071;28;20203;-68
2023/06/27 17:32:32;;;;;;;1.17;1.17;;;21.50;83.30;;;;;;4975438;28;20203;-67
2023/06/27 17:34:59;;;;;;;1.17;1.17;;;21.50;90.10;;;;;;4976054;28;20287;-67
2023/06/27 17:37:25;;;;;;;1.10;1.10;;;21.50;88.40;;;;;;4975945;28;20242;-68
2023/06/27 17:39:52;;;;;;;1.77;1.50;;;21.50;89.50;;;;;;4975636;28;20673;-67
2023/06/27 17:42:19;;;;;;;1.00;1.00;;;21.40;86.50;;;;;;4975608;28;20211;-67
2023/06/27 17:44:48;;;;;;;1.23;1.15;;;21.40;85.80;;;;;;4975761;28;20236;-67
2023/06/27 17:47:15;;;;;;;1.75;1.20;;;21.30;85.00;;;;;;4975665;28;20222;-67
2023/06/27 17:49:41;;;;;;;1.10;1.10;;;21.20;84.00;;;;;;4975867;28;20191;-68
2023/06/27 17:52:08;;;;;;;1.52;1.30;;;21.20;82.30;;;;;;4975610;28;20199;-68
2023/06/27 17:54:35;;;;;;;1.30;1.20;;;21.20;82.30;;;;;;4975998;28;20199;-68
2023/06/27 17:57:01;;;;;;;1.17;1.17;;;21.00;81.70;;;;;;4975353;28;20222;-68
2023/06/27 17:59:28;;;;;;;1.30;1.20;;;21.00;82.90;;;;;;4975382;28;20202;-67
2023/06/27 18:01:56;;;;;;;1.02;1.00;;;20.90;83.60;;;;;;4975507;28;20207;-68
2023/06/27 18:04:23;;;;;;;2.25;1.38;;;20.90;85.70;;;;;;4974932;28;20717;-69
2023/06/27 18:06:49;;;;;;;1.27;1.20;;;20.80;83.40;;;;;;4975147;28;20246;-71
2023/06/27 18:09:16;;;;;;;1.38;1.10;;;20.70;87.50;;;;;;4975279;28;20203;-64
2023/06/27 18:11:44;;;;;;;1.73;1.00;;;20.60;88.50;;;;;;4975206;28;20222;-67
2023/06/27 18:14:11;;;;;;;1.17;1.10;;;20.50;87.90;;;;;;4975212;28;20234;-67
2023/06/27 18:16:38;;;;;;;1.05;0.95;;;20.40;91.30;;;;;;4974755;28;20714;-68
2023/06/27 18:19:06;;;;;;;1.40;1.40;;;20.30;92.20;;;;;;4975225;28;20203;-68
2023/06/27 18:21:33;;;;;;;1.00;1.00;;;20.20;93.20;;;;;;4975202;28;20234;-67
2023/06/27 18:24:00;;;;;;;2.03;1.20;;;20.10;92.80;;;;;;4975045;28;20222;-67
2023/06/27 18:26:26;;;;;;;1.40;1.30;;;20.00;93.30;;;;;;4974949;28;20249;-68
2023/06/27 18:28:53;;;;;;;1.10;0.98;;;19.90;95.30;;;;;;4974648;28;20210;-67
2023/06/27 18:31:20;;;;;;;0.90;0.90;;;19.90;96.80;;;;;;4974791;28;20547;-65
2023/06/27 18:33:46;;;;;;;0.80;0.80;;;19.80;97.60;;;;;;4974529;28;20708;-65
2023/06/27 18:36:14;;;;;;;1.35;1.20;;;19.60;97.00;;;;;;4974476;28;20702;-67
2023/06/27 18:38:42;;;;;;;1.40;1.40;;;19.60;98.90;;;;;;4974669;28;20297;-67
2023/06/27 18:41:09;;;;;;;1.20;1.20;;;19.50;99.90;;;;;;4974575;28;20301;-68
2023/06/27 18:43:36;;;;;;;1.15;1.10;;;19.40;99.90;;;;;;4977301;28;20682;-68
2023/06/27 18:46:03;;;;;;;1.20;1.10;;;19.30;99.90;;;;;;4978868;28;20559;-67
2023/06/27 18:48:30;;;;;;;0.90;0.90;;;19.30;99.90;;;;;;4978915;28;20234;-67
2023/06/27 18:50:56;;;;;;;1.02;0.98;;;19.10;99.90;;;;;;4979468;28;20206;-64
2023/06/27 18:53:25;;;;;;;1.27;1.15;;;19.00;99.90;;;;;;4978811;28;20210;-65
2023/06/27 18:55:51;;;;;;;1.10;1.10;;;18.90;99.90;;;;;;4978842;28;20257;-65
2023/06/27 18:58:18;;;;;;;1.00;1.00;;;18.70;99.90;;;;;;4978851;28;20210;-65
2023/06/27 19:00:45;;;;;;;1.60;0.68;;;18.60;99.90;;;;;;4978606;28;20233;-66
2023/06/27 19:03:11;;;;;;;1.27;0.90;;;18.50;99.90;;;;;;4978535;28;20207;-67
2023/06/27 19:05:38;;;;;;;0.90;0.90;;;18.40;99.90;;;;;;4978313;28;20238;-67
2023/06/27 19:08:06;;;;;;;0.98;0.98;;;18.30;99.90;;;;;;4978618;28;20187;-67
2023/06/27 19:10:34;;;;;;;0.65;0.65;;;18.10;99.90;;;;;;4978329;28;20207;-67
2023/06/27 19:13:04;;;;;;;0.80;0.80;;;18.00;99.90;;;;;;4978814;28;20203;-67
2023/06/27 19:15:31;;;;;;;0.80;0.80;;;17.80;99.90;;;;;;4979583;28;20250;-67
2023/06/27 19:17:59;;;;;;;1.02;0.70;;;17.70;99.90;;;;;;4978510;28;20210;-67
2023/06/27 19:20:25;;;;;;;2.15;0.98;;;17.50;99.90;;;;;;4978416;28;20235;-67
2023/06/27 19:22:52;;;;;;;0.70;0.70;;;17.40;99.90;;;;;;4977957;28;20670;-67
2023/06/27 19:25:19;;;;;;;0.95;0.90;;;17.30;99.90;;;;;;4978225;28;20633;-68
2023/06/27 19:27:47;;;;;;;0.90;0.90;;;17.10;99.90;;;;;;4977964;28;20206;-68
2023/06/27 19:30:14;;;;;;;1.00;1.00;;;17.00;99.90;;;;;;4978389;28;20188;-67
2023/06/27 19:32:41;;;;;;;0.80;0.80;;;16.80;99.90;;;;;;4978157;28;20207;-67
2023/06/27 19:35:08;;;;;;;0.70;0.70;;;16.70;99.90;;;;;;4978301;28;20207;-67
2023/06/27 19:37:35;;;;;;;0.90;0.90;;;16.60;99.90;;;;;;4977829;28;20199;-67
2023/06/27 19:40:03;;;;;;;0.73;0.73;;;16.50;99.90;;;;;;4977984;28;20199;-68
2023/06/27 19:42:30;;;;;;;0.88;0.88;;;16.40;99.90;;;;;;4977887;28;20311;-68
2023/06/27 19:44:58;;;;;;;0.95;0.95;;;16.30;99.90;;;;;;4977944;28;20229;-68
2023/06/27 19:47:25;;;;;;;0.80;0.80;;;16.20;99.90;;;;;;4977890;28;20226;-67
2023/06/27 19:49:52;;;;;;;1.30;0.82;;;16.10;99.90;;;;;;4977759;28;20245;-68
2023/06/27 19:52:19;;;;;;;1.00;1.00;;;16.00;99.90;;;;;;4977402;28;20666;-67
2023/06/27 19:54:46;;;;;;;0.75;0.75;;;16.00;99.90;;;;;;4977118;28;20207;-68
2023/06/27 19:57:13;;;;;;;0.82;0.82;;;15.90;99.90;;;;;;4977468;28;20234;-68
2023/06/27 19:59:40;;;;;;;0.90;0.90;;;15.80;99.90;;;;;;4977535;28;20207;-68
2023/06/27 20:02:09;;;;;;;0.90;0.90;;;15.70;99.90;;;;;;4977444;28;20273;-68
2023/06/27 20:04:36;;;;;;;0.90;0.90;;;15.60;99.90;;;;;;4976978;28;20699;-68
2023/06/27 20:07:03;;;;;;;0.75;0.75;;;15.60;99.90;;;;;;4976868;28;20729;-68
2023/06/27 20:09:31;;;;;;;0.80;0.80;;;15.50;99.90;;;;;;4977302;28;20230;-68
2023/06/27 20:11:58;;;;;;;0.98;0.98;;;15.40;99.90;;;;;;4977249;28;20306;-68
2023/06/27 20:14:25;;;;;;;0.80;0.80;;;15.30;99.90;;;;;;4977235;28;20281;-69
2023/06/27 20:16:51;;;;;;;1.00;1.00;;;15.30;99.90;;;;;;4977066;28;20618;-69
2023/06/27 20:19:19;;;;;;;0.73;0.70;;;15.20;99.90;;;;;;4977066;28;20214;-68
2023/06/27 20:21:46;;;;;;;1.00;1.00;;;15.20;99.90;;;;;;4977059;28;20210;-69
2023/06/27 20:24:13;;;;;;;0.93;0.93;;;15.10;99.90;;;;;;4976957;28;20223;-69
2023/06/27 20:26:39;;;;;;;1.10;1.10;;;15.00;99.90;;;;;;4976842;28;20230;-69
2023/06/27 20:29:06;;;;;;;1.00;1.00;;;15.00;99.90;;;;;;4976896;28;20215;-69
2023/06/27 20:31:33;;;;;;;0.70;0.70;;;14.90;99.90;;;;;;4976923;28;20210;-69
2023/06/27 20:34:00;;;;;;;0.80;0.80;;;14.90;99.90;;;;;;4976834;28;20207;-69
2023/06/27 20:36:28;;;;;;;0.80;0.80;;;14.80;99.90;;;;;;4976814;28;20223;-68
2023/06/27 20:38:55;;;;;;;0.90;0.90;;;14.80;99.90;;;;;;4976441;28;20255;-68
2023/06/27 20:41:21;;;;;;;1.00;1.00;;;14.80;99.90;;;;;;4976729;28;20245;-67
2023/06/27 20:43:53;;;;;;;0.80;0.80;;;14.70;99.90;;;;;;4976872;28;20257;-68
2023/06/27 20:46:20;;;;;;;0.90;0.85;;;14.60;99.90;;;;;;4976768;28;20255;-69
2023/06/27 20:48:46;;;;;;;0.90;0.90;;;14.60;99.90;;;;;;4976752;28;20215;-68
2023/06/27 20:51:14;;;;;;;0.80;0.80;;;14.60;99.90;;;;;;4976770;28;20215;-70
2023/06/27 20:53:42;;;;;;;1.10;1.10;;;14.50;99.90;;;;;;4976483;28;20203;-67
2023/06/27 20:56:08;;;;;;;0.82;0.82;;;14.60;99.90;;;;;;4976389;28;20227;-68
2023/06/27 20:58:35;;;;;;;0.80;0.80;;;14.50;99.90;;;;;;4976368;28;20226;-69
2023/06/27 21:01:02;;;;;;;1.00;1.00;;;14.50;99.90;;;;;;4976370;28;20288;-69
2023/06/27 21:03:28;;;;;;;0.90;0.90;;;14.50;99.90;;;;;;4975879;28;20606;-68
2023/06/27 21:05:55;;;;;;;1.00;1.00;;;14.60;99.90;;;;;;4975006;28;20234;-69
2023/06/27 21:08:22;;;;;;;0.88;0.88;;;14.50;99.90;;;;;;4976435;28;20694;-68
2023/06/27 21:10:50;;;;;;;0.90;0.90;;;14.50;99.90;;;;;;4977937;28;20215;-68
2023/06/27 21:13:17;;;;;;;0.90;0.90;;;14.50;99.90;;;;;;4978868;28;20210;-68
2023/06/27 21:15:44;;;;;;;1.05;1.05;;;14.50;99.90;;;;;;4977249;28;20586;-68
2023/06/27 21:18:11;;;;;;;1.20;1.10;;;14.50;99.90;;;;;;4976059;28;20208;-68
2023/06/27 21:20:37;;;;;;;0.90;0.90;;;14.50;99.90;;;;;;4975972;28;20208;-68
2023/06/27 21:23:04;;;;;;;0.95;0.95;;;14.50;99.90;;;;;;4976056;28;20204;-68
2023/06/27 21:25:31;;;;;;;0.80;0.80;;;14.50;99.90;;;;;;4975543;28;20703;-68
2023/06/27 21:27:59;;;;;;;0.85;0.85;;;14.60;99.90;;;;;;4975680;28;20548;-68
2023/06/27 21:30:26;;;;;;;0.85;0.85;;;14.60;99.90;;;;;;4976040;28;20212;-68
2023/06/27 21:32:53;;;;;;;0.93;0.93;;;14.70;99.90;;;;;;4975688;28;20210;-68
2023/06/27 21:35:20;;;;;;;1.00;1.00;;;14.70;99.90;;;;;;4975623;28;20215;-68
2023/06/27 21:37:46;;;;;;;0.90;0.90;;;14.70;99.90;;;;;;4975718;28;20266;-68
2023/06/27 21:40:13;;;;;;;0.80;0.80;;;14.80;99.90;;;;;;4975691;28;20258;-68
2023/06/27 21:42:40;;;;;;;0.90;0.90;;;14.90;99.90;;;;;;4975225;28;20689;-68
2023/06/27 21:45:09;;;;;;;0.80;0.80;;;14.90;99.90;;;;;;4975685;28;20372;-68
2023/06/27 21:47:36;;;;;;;0.80;0.80;;;15.00;99.90;;;;;;4976029;28;20210;-68
2023/06/27 21:50:03;;;;;;;0.82;0.82;;;15.00;99.90;;;;;;4975374;28;20209;-68
2023/06/27 21:52:30;;;;;;;1.23;1.23;;;15.00;99.90;;;;;;4974992;28;20683;-68
2023/06/27 21:54:57;;;;;;;1.38;1.15;;;15.10;99.90;;;;;;4974982;28;20668;-68
2023/06/27 21:57:23;;;;;;;1.00;1.00;;;15.10;99.90;;;;;;4975209;28;20630;-68
2023/06/27 21:59:50;;;;;;;0.85;0.85;;;15.20;99.90;;;;;;4975291;28;20207;-68
2023/06/27 22:02:18;;;;;;;1.10;1.10;;;15.20;99.90;;;;;;4975170;28;20203;-68
2023/06/27 22:04:45;;;;;;;0.88;0.88;;;15.20;99.90;;;;;;4975127;28;20242;-68
2023/06/27 22:07:11;;;;;;;1.00;1.00;;;15.20;99.90;;;;;;4974777;28;20238;-68
2023/06/27 22:09:39;;;;;;;0.88;0.88;;;15.20;99.90;;;;;;4975047;28;20253;-69
2023/06/27 22:12:07;;;;;;;0.80;0.80;;;15.30;99.90;;;;;;4975174;28;20552;-69
2023/06/27 22:14:34;;;;;;;1.00;1.00;;;15.30;99.90;;;;;;4975092;28;20208;-69
2023/06/27 22:17:00;;;;;;;0.90;0.90;;;15.30;99.90;;;;;;4974409;28;20278;-69
2023/06/27 22:19:28;;;;;;;1.00;0.98;;;15.40;99.90;;;;;;4975037;28;20602;-68
